sensor_id;sensor_type;location;lat;lon;timestamp;P1;durP1;ratioP1;P2;durP2;ratioP2
71648;SDS011;59492;45.638;11.714;2023-02-28T00:01:35;7.50;;;6.40;;
71648;SDS011;59492;45.638;11.714;2023-02-28T00:04:04;8.00;;;7.20;;
71648;SDS011;59492;45.638;11.714;2023-02-28T00:06:30;8.20;;;6.70;;
71648;SDS011;59492;45.638;11.714;2023-02-28T00:08:56;8.10;;;7.30;;
71648;SDS011;59492;45.638;11.714;2023-02-28T00:11:21;7.30;;;6.60;;
71648;SDS011;59492;45.638;11.714;2023-02-28T00:13:47;7.10;;;6.20;;
71648;SDS011;59492;45.638;11.714;2023-02-28T00:16:14;6.60;;;5.90;;
71648;SDS011;59492;45.638;11.714;2023-02-28T00:18:43;8.50;;;6.00;;
71648;SDS011;59492;45.638;11.714;2023-02-28T00:21:09;8.10;;;6.20;;
71648;SDS011;59492;45.638;11.714;2023-02-28T00:23:44;7.10;;;6.30;;
71648;SDS011;59492;45.638;11.714;2023-02-28T00:26:10;6.80;;;6.00;;
71648;SDS011;59492;45.638;11.714;2023-02-28T00:28:36;8.20;;;7.20;;
71648;SDS011;59492;45.638;11.714;2023-02-28T00:31:02;8.20;;;6.70;;
71648;SDS011;59492;45.638;11.714;2023-02-28T00:33:28;8.20;;;6.90;;
71648;SDS011;59492;45.638;11.714;2023-02-28T00:36:00;9.00;;;6.50;;
71648;SDS011;59492;45.638;11.714;2023-02-28T00:38:30;7.70;;;6.60;;
71648;SDS011;59492;45.638;11.714;2023-02-28T00:40:56;7.90;;;6.20;;
71648;SDS011;59492;45.638;11.714;2023-02-28T00:43:22;8.40;;;6.60;;
71648;SDS011;59492;45.638;11.714;2023-02-28T00:45:48;8.20;;;6.50;;
71648;SDS011;59492;45.638;11.714;2023-02-28T00:48:13;8.70;;;6.40;;
71648;SDS011;59492;45.638;11.714;2023-02-28T00:50:39;7.60;;;6.80;;
71648;SDS011;59492;45.638;11.714;2023-02-28T00:53:04;9.50;;;6.10;;
71648;SDS011;59492;45.638;11.714;2023-02-28T00:55:30;7.40;;;5.90;;
71648;SDS011;59492;45.638;11.714;2023-02-28T00:57:56;7.50;;;6.10;;
71648;SDS011;59492;45.638;11.714;2023-02-28T01:00:21;6.60;;;5.80;;
71648;SDS011;59492;45.638;11.714;2023-02-28T01:02:47;9.60;;;6.30;;
71648;SDS011;59492;45.638;11.714;2023-02-28T01:05:12;6.60;;;5.70;;
71648;SDS011;59492;45.638;11.714;2023-02-28T01:07:38;6.40;;;5.60;;
71648;SDS011;59492;45.638;11.714;2023-02-28T01:10:04;9.40;;;5.70;;
71648;SDS011;59492;45.638;11.714;2023-02-28T01:12:32;7.60;;;6.00;;
71648;SDS011;59492;45.638;11.714;2023-02-28T01:14:58;7.60;;;5.90;;
71648;SDS011;59492;45.638;11.714;2023-02-28T01:17:24;6.50;;;5.60;;
71648;SDS011;59492;45.638;11.714;2023-02-28T01:19:49;6.90;;;5.50;;
71648;SDS011;59492;45.638;11.714;2023-02-28T01:22:19;7.50;;;5.30;;
71648;SDS011;59492;45.638;11.714;2023-02-28T01:24:44;6.90;;;5.20;;
71648;SDS011;59492;45.638;11.714;2023-02-28T01:27:10;7.40;;;5.30;;
71648;SDS011;59492;45.638;11.714;2023-02-28T01:29:36;6.80;;;5.90;;
71648;SDS011;59492;45.638;11.714;2023-02-28T01:32:02;6.00;;;5.40;;
71648;SDS011;59492;45.638;11.714;2023-02-28T01:34:27;6.30;;;5.40;;
71648;SDS011;59492;45.638;11.714;2023-02-28T01:36:53;7.20;;;5.40;;
71648;SDS011;59492;45.638;11.714;2023-02-28T01:39:18;5.50;;;4.70;;
71648;SDS011;59492;45.638;11.714;2023-02-28T01:41:47;6.60;;;5.20;;
71648;SDS011;59492;45.638;11.714;2023-02-28T01:47:18;5.70;;;4.90;;
71648;SDS011;59492;45.638;11.714;2023-02-28T01:49:45;5.20;;;4.70;;
71648;SDS011;59492;45.638;11.714;2023-02-28T01:52:11;6.30;;;5.40;;
71648;SDS011;59492;45.638;11.714;2023-02-28T01:54:44;5.70;;;5.00;;
71648;SDS011;59492;45.638;11.714;2023-02-28T01:57:13;5.60;;;4.80;;
71648;SDS011;59492;45.638;11.714;2023-02-28T01:59:44;5.70;;;4.90;;
71648;SDS011;59492;45.638;11.714;2023-02-28T02:02:15;5.50;;;4.80;;
71648;SDS011;59492;45.638;11.714;2023-02-28T02:05:17;5.20;;;4.60;;
71648;SDS011;59492;45.638;11.714;2023-02-28T02:07:36;9.40;;;5.20;;
71648;SDS011;59492;45.638;11.714;2023-02-28T02:13:11;6.30;;;4.70;;
71648;SDS011;59492;45.638;11.714;2023-02-28T02:18:54;5.50;;;4.40;;
71648;SDS011;59492;45.638;11.714;2023-02-28T02:27:23;5.30;;;4.50;;
71648;SDS011;59492;45.638;11.714;2023-02-28T02:29:59;5.00;;;3.90;;
71648;SDS011;59492;45.638;11.714;2023-02-28T02:33:10;5.30;;;4.70;;
71648;SDS011;59492;45.638;11.714;2023-02-28T02:36:12;6.30;;;4.50;;
71648;SDS011;59492;45.638;11.714;2023-02-28T02:38:47;5.10;;;4.30;;
71648;SDS011;59492;45.638;11.714;2023-02-28T02:41:24;5.10;;;4.30;;
71648;SDS011;59492;45.638;11.714;2023-02-28T02:44:11;5.10;;;4.20;;
71648;SDS011;59492;45.638;11.714;2023-02-28T02:46:43;5.00;;;4.00;;
71648;SDS011;59492;45.638;11.714;2023-02-28T02:49:12;4.80;;;4.30;;
71648;SDS011;59492;45.638;11.714;2023-02-28T02:51:44;5.20;;;4.30;;
71648;SDS011;59492;45.638;11.714;2023-02-28T02:54:13;5.50;;;4.40;;
71648;SDS011;59492;45.638;11.714;2023-02-28T02:56:47;5.60;;;4.90;;
71648;SDS011;59492;45.638;11.714;2023-02-28T02:59:16;5.40;;;4.60;;
71648;SDS011;59492;45.638;11.714;2023-02-28T03:01:47;6.00;;;4.50;;
71648;SDS011;59492;45.638;11.714;2023-02-28T03:04:17;4.60;;;4.10;;
71648;SDS011;59492;45.638;11.714;2023-02-28T03:06:48;4.80;;;4.20;;
71648;SDS011;59492;45.638;11.714;2023-02-28T03:09:23;5.20;;;4.10;;
71648;SDS011;59492;45.638;11.714;2023-02-28T03:11:50;4.60;;;4.10;;
71648;SDS011;59492;45.638;11.714;2023-02-28T03:27:45;5.00;;;4.50;;
71648;SDS011;59492;45.638;11.714;2023-02-28T03:30:54;4.80;;;4.00;;
71648;SDS011;59492;45.638;11.714;2023-02-28T03:36:52;4.40;;;3.90;;
71648;SDS011;59492;45.638;11.714;2023-02-28T03:39:23;5.80;;;4.30;;
71648;SDS011;59492;45.638;11.714;2023-02-28T03:41:57;4.90;;;3.80;;
71648;SDS011;59492;45.638;11.714;2023-02-28T03:44:30;4.80;;;4.10;;
71648;SDS011;59492;45.638;11.714;2023-02-28T03:47:02;5.70;;;4.30;;
71648;SDS011;59492;45.638;11.714;2023-02-28T03:49:42;4.50;;;3.90;;
71648;SDS011;59492;45.638;11.714;2023-02-28T03:52:14;5.10;;;3.90;;
71648;SDS011;59492;45.638;11.714;2023-02-28T03:54:45;5.00;;;3.90;;
71648;SDS011;59492;45.638;11.714;2023-02-28T03:57:26;4.80;;;4.20;;
71648;SDS011;59492;45.638;11.714;2023-02-28T04:00:03;4.30;;;3.90;;
71648;SDS011;59492;45.638;11.714;2023-02-28T04:02:33;4.40;;;3.90;;
71648;SDS011;59492;45.638;11.714;2023-02-28T04:04:59;4.50;;;3.80;;
71648;SDS011;59492;45.638;11.714;2023-02-28T04:07:28;4.00;;;3.60;;
71648;SDS011;59492;45.638;11.714;2023-02-28T04:09:55;4.50;;;3.60;;
71648;SDS011;59492;45.638;11.714;2023-02-28T04:12:21;4.60;;;3.50;;
71648;SDS011;59492;45.638;11.714;2023-02-28T04:14:48;5.10;;;3.90;;
71648;SDS011;59492;45.638;11.714;2023-02-28T04:17:15;4.40;;;3.70;;
71648;SDS011;59492;45.638;11.714;2023-02-28T04:19:41;4.60;;;4.00;;
71648;SDS011;59492;45.638;11.714;2023-02-28T04:22:08;5.80;;;3.90;;
71648;SDS011;59492;45.638;11.714;2023-02-28T04:24:34;4.10;;;3.60;;
71648;SDS011;59492;45.638;11.714;2023-02-28T04:27:06;4.20;;;3.80;;
71648;SDS011;59492;45.638;11.714;2023-02-28T04:29:33;4.40;;;3.80;;
71648;SDS011;59492;45.638;11.714;2023-02-28T04:32:00;4.50;;;4.00;;
71648;SDS011;59492;45.638;11.714;2023-02-28T04:34:27;4.60;;;3.80;;
71648;SDS011;59492;45.638;11.714;2023-02-28T04:36:54;4.80;;;3.90;;
71648;SDS011;59492;45.638;11.714;2023-02-28T04:39:21;6.60;;;3.60;;
71648;SDS011;59492;45.638;11.714;2023-02-28T04:41:48;5.20;;;3.60;;
71648;SDS011;59492;45.638;11.714;2023-02-28T04:44:14;4.30;;;3.80;;
71648;SDS011;59492;45.638;11.714;2023-02-28T04:46:43;4.10;;;3.70;;
71648;SDS011;59492;45.638;11.714;2023-02-28T04:49:11;4.10;;;3.70;;
71648;SDS011;59492;45.638;11.714;2023-02-28T04:51:40;4.40;;;3.90;;
71648;SDS011;59492;45.638;11.714;2023-02-28T04:54:06;4.30;;;3.60;;
71648;SDS011;59492;45.638;11.714;2023-02-28T04:56:33;3.90;;;3.60;;
71648;SDS011;59492;45.638;11.714;2023-02-28T04:59:05;4.40;;;4.00;;
71648;SDS011;59492;45.638;11.714;2023-02-28T05:01:32;4.50;;;3.80;;
71648;SDS011;59492;45.638;11.714;2023-02-28T05:03:59;3.90;;;3.40;;
71648;SDS011;59492;45.638;11.714;2023-02-28T05:06:27;4.30;;;3.60;;
71648;SDS011;59492;45.638;11.714;2023-02-28T05:08:55;4.10;;;3.60;;
71648;SDS011;59492;45.638;11.714;2023-02-28T05:11:23;4.50;;;3.80;;
71648;SDS011;59492;45.638;11.714;2023-02-28T05:13:51;4.10;;;3.70;;
71648;SDS011;59492;45.638;11.714;2023-02-28T05:16:18;4.30;;;3.50;;
71648;SDS011;59492;45.638;11.714;2023-02-28T05:18:46;5.30;;;4.20;;
71648;SDS011;59492;45.638;11.714;2023-02-28T05:21:22;4.20;;;3.50;;
71648;SDS011;59492;45.638;11.714;2023-02-28T05:24:09;3.90;;;3.50;;
71648;SDS011;59492;45.638;11.714;2023-02-28T05:26:39;3.90;;;3.60;;
71648;SDS011;59492;45.638;11.714;2023-02-28T05:29:06;3.90;;;3.40;;
71648;SDS011;59492;45.638;11.714;2023-02-28T05:31:32;4.00;;;3.60;;
71648;SDS011;59492;45.638;11.714;2023-02-28T05:33:58;4.40;;;3.80;;
71648;SDS011;59492;45.638;11.714;2023-02-28T05:36:24;3.90;;;3.50;;
71648;SDS011;59492;45.638;11.714;2023-02-28T05:38:53;6.20;;;3.90;;
71648;SDS011;59492;45.638;11.714;2023-02-28T05:41:24;3.80;;;3.40;;
71648;SDS011;59492;45.638;11.714;2023-02-28T05:43:51;4.10;;;3.30;;
71648;SDS011;59492;45.638;11.714;2023-02-28T05:46:16;3.60;;;3.30;;
71648;SDS011;59492;45.638;11.714;2023-02-28T05:48:42;3.90;;;3.40;;
71648;SDS011;59492;45.638;11.714;2023-02-28T05:51:12;4.10;;;3.30;;
71648;SDS011;59492;45.638;11.714;2023-02-28T05:53:40;5.60;;;3.50;;
71648;SDS011;59492;45.638;11.714;2023-02-28T05:56:06;4.90;;;3.70;;
71648;SDS011;59492;45.638;11.714;2023-02-28T05:58:32;4.10;;;3.60;;
71648;SDS011;59492;45.638;11.714;2023-02-28T06:00:58;4.90;;;3.70;;
71648;SDS011;59492;45.638;11.714;2023-02-28T06:03:29;3.60;;;3.20;;
71648;SDS011;59492;45.638;11.714;2023-02-28T06:05:54;3.90;;;3.20;;
71648;SDS011;59492;45.638;11.714;2023-02-28T06:08:20;4.10;;;3.40;;
71648;SDS011;59492;45.638;11.714;2023-02-28T06:10:46;4.10;;;3.60;;
71648;SDS011;59492;45.638;11.714;2023-02-28T06:13:12;5.20;;;3.80;;
71648;SDS011;59492;45.638;11.714;2023-02-28T06:15:46;3.90;;;3.50;;
71648;SDS011;59492;45.638;11.714;2023-02-28T06:18:21;4.20;;;3.30;;
71648;SDS011;59492;45.638;11.714;2023-02-28T06:20:53;3.50;;;3.20;;
71648;SDS011;59492;45.638;11.714;2023-02-28T06:23:25;3.80;;;3.40;;
71648;SDS011;59492;45.638;11.714;2023-02-28T06:25:50;5.70;;;3.60;;
71648;SDS011;59492;45.638;11.714;2023-02-28T06:28:22;4.30;;;3.50;;
71648;SDS011;59492;45.638;11.714;2023-02-28T06:30:48;3.80;;;3.30;;
71648;SDS011;59492;45.638;11.714;2023-02-28T06:33:14;4.00;;;3.50;;
71648;SDS011;59492;45.638;11.714;2023-02-28T06:35:39;6.00;;;3.80;;
71648;SDS011;59492;45.638;11.714;2023-02-28T06:38:05;3.70;;;3.10;;
71648;SDS011;59492;45.638;11.714;2023-02-28T06:40:40;5.00;;;3.50;;
71648;SDS011;59492;45.638;11.714;2023-02-28T06:43:05;4.40;;;3.70;;
71648;SDS011;59492;45.638;11.714;2023-02-28T06:45:32;3.70;;;3.20;;
71648;SDS011;59492;45.638;11.714;2023-02-28T06:48:00;5.00;;;3.50;;
71648;SDS011;59492;45.638;11.714;2023-02-28T06:50:26;4.20;;;3.30;;
71648;SDS011;59492;45.638;11.714;2023-02-28T06:52:54;9.20;;;3.60;;
71648;SDS011;59492;45.638;11.714;2023-02-28T06:55:20;3.90;;;3.10;;
71648;SDS011;59492;45.638;11.714;2023-02-28T06:57:52;4.50;;;3.40;;
71648;SDS011;59492;45.638;11.714;2023-02-28T07:00:20;4.50;;;3.70;;
71648;SDS011;59492;45.638;11.714;2023-02-28T07:02:46;3.90;;;3.30;;
71648;SDS011;59492;45.638;11.714;2023-02-28T07:05:12;5.40;;;3.80;;
71648;SDS011;59492;45.638;11.714;2023-02-28T07:07:39;5.10;;;3.20;;
71648;SDS011;59492;45.638;11.714;2023-02-28T07:10:12;4.70;;;3.50;;
71648;SDS011;59492;45.638;11.714;2023-02-28T07:15:08;5.70;;;3.40;;
71648;SDS011;59492;45.638;11.714;2023-02-28T07:17:34;6.10;;;3.50;;
71648;SDS011;59492;45.638;11.714;2023-02-28T07:20:00;5.70;;;3.40;;
71648;SDS011;59492;45.638;11.714;2023-02-28T07:22:25;6.70;;;3.80;;
71648;SDS011;59492;45.638;11.714;2023-02-28T07:24:51;5.60;;;3.50;;
71648;SDS011;59492;45.638;11.714;2023-02-28T07:27:16;5.50;;;3.30;;
71648;SDS011;59492;45.638;11.714;2023-02-28T07:29:49;5.10;;;3.70;;
71648;SDS011;59492;45.638;11.714;2023-02-28T07:32:15;4.80;;;3.30;;
71648;SDS011;59492;45.638;11.714;2023-02-28T07:34:41;5.50;;;3.70;;
71648;SDS011;59492;45.638;11.714;2023-02-28T07:37:06;4.10;;;3.50;;
71648;SDS011;59492;45.638;11.714;2023-02-28T07:39:32;4.00;;;3.40;;
71648;SDS011;59492;45.638;11.714;2023-02-28T07:41:57;5.00;;;3.30;;
71648;SDS011;59492;45.638;11.714;2023-02-28T07:44:25;5.30;;;4.10;;
71648;SDS011;59492;45.638;11.714;2023-02-28T07:46:51;8.20;;;3.80;;
71648;SDS011;59492;45.638;11.714;2023-02-28T07:49:17;5.40;;;3.30;;
71648;SDS011;59492;45.638;11.714;2023-02-28T07:51:43;6.10;;;3.30;;
71648;SDS011;59492;45.638;11.714;2023-02-28T07:54:09;4.70;;;3.40;;
71648;SDS011;59492;45.638;11.714;2023-02-28T07:56:35;5.20;;;3.60;;
71648;SDS011;59492;45.638;11.714;2023-02-28T07:59:00;4.10;;;3.30;;
71648;SDS011;59492;45.638;11.714;2023-02-28T08:01:27;7.10;;;3.60;;
71648;SDS011;59492;45.638;11.714;2023-02-28T08:03:52;4.20;;;3.60;;
71648;SDS011;59492;45.638;11.714;2023-02-28T08:06:23;7.60;;;4.70;;
71648;SDS011;59492;45.638;11.714;2023-02-28T08:08:50;5.10;;;3.50;;
71648;SDS011;59492;45.638;11.714;2023-02-28T08:11:16;7.10;;;3.40;;
71648;SDS011;59492;45.638;11.714;2023-02-28T08:13:43;3.90;;;3.40;;
71648;SDS011;59492;45.638;11.714;2023-02-28T08:16:10;3.80;;;3.10;;
71648;SDS011;59492;45.638;11.714;2023-02-28T08:18:40;3.90;;;3.50;;
71648;SDS011;59492;45.638;11.714;2023-02-28T08:21:06;4.00;;;3.60;;
71648;SDS011;59492;45.638;11.714;2023-02-28T08:23:33;5.00;;;3.40;;
71648;SDS011;59492;45.638;11.714;2023-02-28T08:25:59;6.20;;;3.60;;
71648;SDS011;59492;45.638;11.714;2023-02-28T08:28:24;5.10;;;3.50;;
71648;SDS011;59492;45.638;11.714;2023-02-28T08:30:50;4.10;;;3.50;;
71648;SDS011;59492;45.638;11.714;2023-02-28T08:33:15;6.90;;;3.80;;
71648;SDS011;59492;45.638;11.714;2023-02-28T08:35:41;4.80;;;3.10;;
71648;SDS011;59492;45.638;11.714;2023-02-28T08:38:06;5.50;;;3.50;;
71648;SDS011;59492;45.638;11.714;2023-02-28T08:40:32;4.40;;;3.60;;
71648;SDS011;59492;45.638;11.714;2023-02-28T08:42:57;3.90;;;3.30;;
71648;SDS011;59492;45.638;11.714;2023-02-28T08:45:24;11.60;;;3.90;;
71648;SDS011;59492;45.638;11.714;2023-02-28T08:47:50;9.70;;;3.90;;
71648;SDS011;59492;45.638;11.714;2023-02-28T08:50:17;6.40;;;3.60;;
71648;SDS011;59492;45.638;11.714;2023-02-28T08:52:43;5.20;;;4.10;;
71648;SDS011;59492;45.638;11.714;2023-02-28T08:55:10;4.10;;;3.40;;
71648;SDS011;59492;45.638;11.714;2023-02-28T08:57:39;4.40;;;3.50;;
71648;SDS011;59492;45.638;11.714;2023-02-28T09:00:05;4.50;;;3.40;;
71648;SDS011;59492;45.638;11.714;2023-02-28T09:02:32;6.00;;;3.70;;
71648;SDS011;59492;45.638;11.714;2023-02-28T09:05:07;4.40;;;3.50;;
71648;SDS011;59492;45.638;11.714;2023-02-28T09:07:33;4.10;;;3.70;;
71648;SDS011;59492;45.638;11.714;2023-02-28T09:09:59;4.60;;;3.90;;
71648;SDS011;59492;45.638;11.714;2023-02-28T09:12:26;4.50;;;3.70;;
71648;SDS011;59492;45.638;11.714;2023-02-28T09:14:57;7.30;;;4.10;;
71648;SDS011;59492;45.638;11.714;2023-02-28T09:17:26;6.60;;;4.20;;
71648;SDS011;59492;45.638;11.714;2023-02-28T09:19:53;5.50;;;3.80;;
71648;SDS011;59492;45.638;11.714;2023-02-28T09:22:19;5.00;;;3.60;;
71648;SDS011;59492;45.638;11.714;2023-02-28T09:24:44;6.40;;;4.60;;
71648;SDS011;59492;45.638;11.714;2023-02-28T09:27:10;7.60;;;4.00;;
71648;SDS011;59492;45.638;11.714;2023-02-28T09:29:35;6.20;;;4.70;;
71648;SDS011;59492;45.638;11.714;2023-02-28T09:32:01;6.40;;;3.80;;
71648;SDS011;59492;45.638;11.714;2023-02-28T09:34:27;5.50;;;4.10;;
71648;SDS011;59492;45.638;11.714;2023-02-28T09:36:55;5.10;;;4.00;;
71648;SDS011;59492;45.638;11.714;2023-02-28T09:39:21;6.50;;;4.30;;
71648;SDS011;59492;45.638;11.714;2023-02-28T09:41:48;4.50;;;4.10;;
71648;SDS011;59492;45.638;11.714;2023-02-28T09:44:20;5.70;;;4.10;;
71648;SDS011;59492;45.638;11.714;2023-02-28T09:47:12;6.50;;;4.40;;
71648;SDS011;59492;45.638;11.714;2023-02-28T09:49:47;5.90;;;4.30;;
71648;SDS011;59492;45.638;11.714;2023-02-28T09:52:15;6.20;;;4.30;;
71648;SDS011;59492;45.638;11.714;2023-02-28T09:54:44;6.40;;;4.40;;
71648;SDS011;59492;45.638;11.714;2023-02-28T09:57:15;6.40;;;4.30;;
71648;SDS011;59492;45.638;11.714;2023-02-28T10:00:24;6.90;;;4.30;;
71648;SDS011;59492;45.638;11.714;2023-02-28T10:05:38;8.20;;;4.30;;
71648;SDS011;59492;45.638;11.714;2023-02-28T10:08:15;5.80;;;3.70;;
71648;SDS011;59492;45.638;11.714;2023-02-28T10:10:48;6.60;;;4.30;;
71648;SDS011;59492;45.638;11.714;2023-02-28T10:15:47;7.40;;;4.20;;
71648;SDS011;59492;45.638;11.714;2023-02-28T10:18:20;7.50;;;4.30;;
71648;SDS011;59492;45.638;11.714;2023-02-28T10:20:49;7.90;;;5.10;;
71648;SDS011;59492;45.638;11.714;2023-02-28T10:23:35;6.70;;;4.40;;
71648;SDS011;59492;45.638;11.714;2023-02-28T10:26:09;6.10;;;4.50;;
71648;SDS011;59492;45.638;11.714;2023-02-28T10:28:38;6.40;;;4.30;;
71648;SDS011;59492;45.638;11.714;2023-02-28T10:31:04;5.20;;;3.90;;
71648;SDS011;59492;45.638;11.714;2023-02-28T10:33:34;7.80;;;4.60;;
71648;SDS011;59492;45.638;11.714;2023-02-28T10:36:01;5.40;;;4.30;;
71648;SDS011;59492;45.638;11.714;2023-02-28T10:38:38;5.50;;;3.80;;
71648;SDS011;59492;45.638;11.714;2023-02-28T10:43:30;7.50;;;4.40;;
71648;SDS011;59492;45.638;11.714;2023-02-28T10:45:56;8.00;;;4.40;;
71648;SDS011;59492;45.638;11.714;2023-02-28T10:48:36;6.90;;;4.30;;
71648;SDS011;59492;45.638;11.714;2023-02-28T10:51:11;6.50;;;3.80;;
71648;SDS011;59492;45.638;11.714;2023-02-28T10:53:46;5.10;;;4.00;;
71648;SDS011;59492;45.638;11.714;2023-02-28T10:56:15;6.30;;;3.70;;
71648;SDS011;59492;45.638;11.714;2023-02-28T11:03:59;6.00;;;4.00;;
71648;SDS011;59492;45.638;11.714;2023-02-28T11:06:29;4.90;;;3.80;;
71648;SDS011;59492;45.638;11.714;2023-02-28T11:09:06;8.10;;;4.00;;
71648;SDS011;59492;45.638;11.714;2023-02-28T11:11:52;8.30;;;4.10;;
71648;SDS011;59492;45.638;11.714;2023-02-28T11:14:22;5.80;;;4.00;;
71648;SDS011;59492;45.638;11.714;2023-02-28T11:16:51;7.90;;;4.00;;
71648;SDS011;59492;45.638;11.714;2023-02-28T11:19:19;8.10;;;3.90;;
71648;SDS011;59492;45.638;11.714;2023-02-28T11:21:59;6.50;;;3.90;;
71648;SDS011;59492;45.638;11.714;2023-02-28T11:24:28;8.30;;;4.20;;
71648;SDS011;59492;45.638;11.714;2023-02-28T11:26:55;5.10;;;3.60;;
71648;SDS011;59492;45.638;11.714;2023-02-28T11:29:23;5.40;;;3.60;;
71648;SDS011;59492;45.638;11.714;2023-02-28T11:34:35;8.90;;;3.80;;
71648;SDS011;59492;45.638;11.714;2023-02-28T11:37:03;5.00;;;3.40;;
71648;SDS011;59492;45.638;11.714;2023-02-28T11:39:32;4.30;;;3.20;;
71648;SDS011;59492;45.638;11.714;2023-02-28T11:58:14;5.90;;;3.50;;
71648;SDS011;59492;45.638;11.714;2023-02-28T12:07:11;4.10;;;3.20;;
71648;SDS011;59492;45.638;11.714;2023-02-28T12:12:37;6.10;;;4.00;;
71648;SDS011;59492;45.638;11.714;2023-02-28T12:28:57;4.50;;;3.00;;
71648;SDS011;59492;45.638;11.714;2023-02-28T12:31:31;5.30;;;3.30;;
71648;SDS011;59492;45.638;11.714;2023-02-28T12:34:12;5.10;;;3.10;;
71648;SDS011;59492;45.638;11.714;2023-02-28T12:36:42;5.80;;;3.20;;
71648;SDS011;59492;45.638;11.714;2023-02-28T12:39:12;4.30;;;3.00;;
71648;SDS011;59492;45.638;11.714;2023-02-28T12:41:54;5.60;;;3.20;;
71648;SDS011;59492;45.638;11.714;2023-02-28T12:44:39;5.70;;;3.20;;
71648;SDS011;59492;45.638;11.714;2023-02-28T12:47:12;3.90;;;3.00;;
71648;SDS011;59492;45.638;11.714;2023-02-28T12:49:50;5.20;;;2.90;;
71648;SDS011;59492;45.638;11.714;2023-02-28T12:52:22;4.60;;;3.30;;
71648;SDS011;59492;45.638;11.714;2023-02-28T12:55:00;4.30;;;2.80;;
71648;SDS011;59492;45.638;11.714;2023-02-28T13:00:15;4.40;;;3.10;;
71648;SDS011;59492;45.638;11.714;2023-02-28T13:05:42;5.20;;;3.00;;
71648;SDS011;59492;45.638;11.714;2023-02-28T13:08:27;6.80;;;2.90;;
71648;SDS011;59492;45.638;11.714;2023-02-28T13:11:01;5.00;;;3.00;;
71648;SDS011;59492;45.638;11.714;2023-02-28T13:13:27;4.60;;;3.00;;
71648;SDS011;59492;45.638;11.714;2023-02-28T13:15:58;4.90;;;3.30;;
71648;SDS011;59492;45.638;11.714;2023-02-28T13:18:35;6.00;;;3.10;;
71648;SDS011;59492;45.638;11.714;2023-02-28T13:21:05;6.10;;;3.40;;
71648;SDS011;59492;45.638;11.714;2023-02-28T13:24:08;5.50;;;3.30;;
71648;SDS011;59492;45.638;11.714;2023-02-28T13:34:33;5.00;;;2.90;;
71648;SDS011;59492;45.638;11.714;2023-02-28T13:43:01;4.40;;;3.10;;
71648;SDS011;59492;45.638;11.714;2023-02-28T13:45:28;5.80;;;3.40;;
71648;SDS011;59492;45.638;11.714;2023-02-28T13:48:04;4.60;;;2.90;;
71648;SDS011;59492;45.638;11.714;2023-02-28T13:50:41;4.50;;;3.10;;
71648;SDS011;59492;45.638;11.714;2023-02-28T14:01:38;6.60;;;3.60;;
71648;SDS011;59492;45.638;11.714;2023-02-28T14:04:39;5.60;;;3.50;;
71648;SDS011;59492;45.638;11.714;2023-02-28T14:07:15;4.70;;;3.50;;
71648;SDS011;59492;45.638;11.714;2023-02-28T14:09:45;5.20;;;3.90;;
71648;SDS011;59492;45.638;11.714;2023-02-28T14:32:33;5.30;;;3.80;;
71648;SDS011;59492;45.638;11.714;2023-02-28T14:37:46;5.70;;;4.00;;
71648;SDS011;59492;45.638;11.714;2023-02-28T14:40:32;10.30;;;4.60;;
71648;SDS011;59492;45.638;11.714;2023-02-28T14:43:01;7.20;;;5.20;;
71648;SDS011;59492;45.638;11.714;2023-02-28T14:45:31;6.80;;;4.10;;
71648;SDS011;59492;45.638;11.714;2023-02-28T14:47:59;7.20;;;4.40;;
71648;SDS011;59492;45.638;11.714;2023-02-28T14:50:27;7.50;;;4.60;;
71648;SDS011;59492;45.638;11.714;2023-02-28T14:52:56;7.30;;;4.80;;
71648;SDS011;59492;45.638;11.714;2023-02-28T14:55:26;8.40;;;5.20;;
71648;SDS011;59492;45.638;11.714;2023-02-28T14:58:01;8.20;;;5.10;;
71648;SDS011;59492;45.638;11.714;2023-02-28T15:00:30;7.20;;;5.00;;
71648;SDS011;59492;45.638;11.714;2023-02-28T15:02:57;8.70;;;5.00;;
71648;SDS011;59492;45.638;11.714;2023-02-28T15:05:32;8.70;;;5.70;;
71648;SDS011;59492;45.638;11.714;2023-02-28T15:08:15;9.90;;;5.40;;
71648;SDS011;59492;45.638;11.714;2023-02-28T15:11:00;6.90;;;5.00;;
71648;SDS011;59492;45.638;11.714;2023-02-28T15:13:50;7.70;;;5.50;;
71648;SDS011;59492;45.638;11.714;2023-02-28T15:16:19;7.20;;;5.30;;
71648;SDS011;59492;45.638;11.714;2023-02-28T15:18:54;6.40;;;5.00;;
71648;SDS011;59492;45.638;11.714;2023-02-28T15:21:26;8.10;;;5.50;;
71648;SDS011;59492;45.638;11.714;2023-02-28T15:24:06;9.70;;;5.40;;
71648;SDS011;59492;45.638;11.714;2023-02-28T15:26:41;9.10;;;5.20;;
71648;SDS011;59492;45.638;11.714;2023-02-28T15:29:15;13.00;;;5.80;;
71648;SDS011;59492;45.638;11.714;2023-02-28T15:31:50;9.50;;;5.20;;
71648;SDS011;59492;45.638;11.714;2023-02-28T15:34:37;7.80;;;5.20;;
71648;SDS011;59492;45.638;11.714;2023-02-28T15:39:54;10.60;;;5.40;;
71648;SDS011;59492;45.638;11.714;2023-02-28T15:42:22;12.20;;;5.50;;
71648;SDS011;59492;45.638;11.714;2023-02-28T15:44:52;8.70;;;5.40;;
71648;SDS011;59492;45.638;11.714;2023-02-28T15:47:25;8.50;;;5.20;;
71648;SDS011;59492;45.638;11.714;2023-02-28T15:49:56;12.70;;;5.60;;
71648;SDS011;59492;45.638;11.714;2023-02-28T15:52:42;8.10;;;5.00;;
71648;SDS011;59492;45.638;11.714;2023-02-28T15:57:44;11.10;;;5.60;;
71648;SDS011;59492;45.638;11.714;2023-02-28T16:00:12;6.80;;;5.00;;
71648;SDS011;59492;45.638;11.714;2023-02-28T16:02:40;7.50;;;5.60;;
71648;SDS011;59492;45.638;11.714;2023-02-28T16:07:32;8.00;;;5.20;;
71648;SDS011;59492;45.638;11.714;2023-02-28T16:09:59;7.30;;;5.50;;
71648;SDS011;59492;45.638;11.714;2023-02-28T16:12:29;10.90;;;5.20;;
71648;SDS011;59492;45.638;11.714;2023-02-28T16:15:00;9.70;;;5.40;;
71648;SDS011;59492;45.638;11.714;2023-02-28T16:17:35;8.90;;;5.10;;
71648;SDS011;59492;45.638;11.714;2023-02-28T16:22:41;6.20;;;4.70;;
71648;SDS011;59492;45.638;11.714;2023-02-28T16:25:10;9.20;;;5.10;;
71648;SDS011;59492;45.638;11.714;2023-02-28T16:27:38;8.10;;;5.40;;
71648;SDS011;59492;45.638;11.714;2023-02-28T16:30:04;7.80;;;5.10;;
71648;SDS011;59492;45.638;11.714;2023-02-28T16:32:31;8.70;;;4.90;;
71648;SDS011;59492;45.638;11.714;2023-02-28T16:35:00;10.00;;;5.30;;
71648;SDS011;59492;45.638;11.714;2023-02-28T16:37:26;8.20;;;4.70;;
71648;SDS011;59492;45.638;11.714;2023-02-28T16:39:52;8.30;;;4.80;;
71648;SDS011;59492;45.638;11.714;2023-02-28T16:42:20;8.30;;;5.20;;
71648;SDS011;59492;45.638;11.714;2023-02-28T16:44:50;9.70;;;5.50;;
71648;SDS011;59492;45.638;11.714;2023-02-28T16:47:17;8.20;;;4.70;;
71648;SDS011;59492;45.638;11.714;2023-02-28T16:49:43;10.60;;;5.00;;
71648;SDS011;59492;45.638;11.714;2023-02-28T16:52:09;8.70;;;4.90;;
71648;SDS011;59492;45.638;11.714;2023-02-28T16:54:37;8.10;;;4.90;;
71648;SDS011;59492;45.638;11.714;2023-02-28T16:57:06;7.40;;;5.00;;
71648;SDS011;59492;45.638;11.714;2023-02-28T16:59:40;8.90;;;5.10;;
71648;SDS011;59492;45.638;11.714;2023-02-28T17:02:12;9.00;;;5.00;;
71648;SDS011;59492;45.638;11.714;2023-02-28T17:04:40;9.10;;;5.20;;
71648;SDS011;59492;45.638;11.714;2023-02-28T17:07:09;11.50;;;5.30;;
71648;SDS011;59492;45.638;11.714;2023-02-28T17:09:37;7.10;;;5.30;;
71648;SDS011;59492;45.638;11.714;2023-02-28T17:12:03;8.50;;;5.60;;
71648;SDS011;59492;45.638;11.714;2023-02-28T17:14:29;7.40;;;5.80;;
71648;SDS011;59492;45.638;11.714;2023-02-28T17:16:54;8.50;;;5.80;;
71648;SDS011;59492;45.638;11.714;2023-02-28T17:19:20;7.00;;;5.60;;
71648;SDS011;59492;45.638;11.714;2023-02-28T17:21:45;8.00;;;5.80;;